Time;durP1;ratioP1;P1;durP2;ratioP2;P2;SDS_P1;SDS_P2;PMS_P1;PMS_P2;Temp;Humidity;BMP_temperature;BMP_pressure;BME280_temperature;BME280_humidity;BME280_pressure;Samples;Min_cycle;Max_cycle;Signal;HPM_P1;HPM_P2
2022/11/06 05:02:38;;;;;;;8.00;4.80;;;5.70;99.90;;;;;;5012225;23;20121;-68
2022/11/06 05:05:04;;;;;;;8.57;4.87;;;5.70;99.90;;;;;;4999120;28;20030;-68
2022/11/06 05:07:29;;;;;;;10.90;4.72;;;5.70;99.90;;;;;;5003430;28;20030;-68
2022/11/06 05:09:55;;;;;;;7.80;4.80;;;5.80;99.90;;;;;;4997004;28;20378;-68
2022/11/06 05:12:20;;;;;;;11.03;5.13;;;5.80;99.90;;;;;;4995217;28;20037;-68
2022/11/06 05:14:46;;;;;;;9.70;5.17;;;5.80;99.90;;;;;;5040254;23;20068;-72
2022/11/06 05:17:12;;;;;;;8.23;4.77;;;5.80;99.90;;;;;;5034077;28;20022;-71
2022/11/06 05:19:37;;;;;;;11.37;4.70;;;5.80;99.90;;;;;;5032451;28;20065;-72
2022/11/06 05:24:47;;;;;;;12.02;5.10;;;5.80;99.90;;;;;;5033931;28;20505;-72
2022/11/06 05:27:12;;;;;;;11.57;5.57;;;5.80;99.90;;;;;;5034010;28;20026;-71
2022/11/06 05:29:38;;;;;;;8.63;5.33;;;5.70;99.90;;;;;;5032026;28;20059;-72
2022/11/06 05:32:04;;;;;;;9.97;5.90;;;5.80;99.90;;;;;;5033491;28;20034;-72
2022/11/06 05:34:29;;;;;;;10.52;5.57;;;5.80;99.90;;;;;;5033549;28;20033;-72
2022/11/06 05:36:56;;;;;;;10.33;6.30;;;5.80;99.90;;;;;;5033930;28;20044;-73
2022/11/06 05:39:21;;;;;;;8.68;5.80;;;5.80;99.90;;;;;;5033811;28;20084;-71
2022/11/06 05:41:53;;;;;;;13.20;6.20;;;5.80;99.90;;;;;;5033980;28;20022;-72
2022/11/06 05:44:18;;;;;;;11.85;6.50;;;5.70;99.90;;;;;;5025856;28;20045;-72
2022/11/06 05:46:44;;;;;;;11.63;6.17;;;5.50;99.90;;;;;;5012254;28;20463;-72
2022/11/06 05:49:09;;;;;;;9.33;5.93;;;5.40;99.90;;;;;;5012141;28;20037;-72
2022/11/06 05:51:35;;;;;;;8.83;6.00;;;5.40;99.90;;;;;;5012151;28;20022;-71
2022/11/06 05:54:00;;;;;;;10.77;6.00;;;5.40;99.90;;;;;;5015922;28;20033;-72
2022/11/06 05:56:26;;;;;;;12.90;6.03;;;5.50;99.90;;;;;;5015961;28;20037;-71
2022/11/06 05:58:51;;;;;;;9.03;5.93;;;5.50;99.90;;;;;;5017079;28;20037;-72
2022/11/06 06:01:17;;;;;;;9.67;6.23;;;5.40;99.90;;;;;;5017575;28;20018;-72
2022/11/06 06:03:43;;;;;;;11.30;6.97;;;5.50;99.90;;;;;;5009655;28;20026;-72
2022/11/06 06:06:08;;;;;;;9.23;5.60;;;5.40;99.90;;;;;;4996604;28;20308;-72
2022/11/06 06:08:34;;;;;;;8.57;6.00;;;5.40;99.90;;;;;;5000436;28;20387;-72
2022/11/06 06:10:59;;;;;;;11.23;6.50;;;5.60;99.90;;;;;;5001466;28;20411;-73
2022/11/06 06:13:25;;;;;;;10.27;6.00;;;5.60;99.90;;;;;;4999502;28;20053;-72
2022/11/06 06:15:50;;;;;;;9.53;5.80;;;5.60;99.90;;;;;;5017573;28;20022;-73
2022/11/06 06:18:16;;;;;;;7.97;4.83;;;5.70;99.90;;;;;;5016372;28;20542;-73
2022/11/06 06:20:41;;;;;;;8.23;5.43;;;6.10;99.90;;;;;;5016186;28;20080;-73
2022/11/06 06:23:08;;;;;;;10.07;5.37;;;6.00;99.90;;;;;;5017024;28;20025;-72
2022/11/06 06:25:34;;;;;;;9.57;5.28;;;5.90;99.90;;;;;;5017071;28;20095;-73
2022/11/06 06:27:59;;;;;;;9.70;5.30;;;6.00;99.90;;;;;;5018148;28;20073;-73
2022/11/06 06:30:25;;;;;;;9.57;5.07;;;6.30;99.90;;;;;;5017323;28;20029;-73
2022/11/06 06:32:52;;;;;;;8.50;5.00;;;6.30;99.90;;;;;;5018015;28;20036;-72
2022/11/06 06:35:17;;;;;;;7.93;5.28;;;6.30;99.90;;;;;;5020099;28;20404;-72
2022/11/06 06:37:50;;;;;;;9.90;5.80;;;6.20;99.90;;;;;;5018926;28;20018;-72
2022/11/06 06:40:15;;;;;;;10.00;5.68;;;6.20;99.90;;;;;;5016638;28;20105;-72
2022/11/06 06:42:41;;;;;;;8.93;5.83;;;6.00;99.90;;;;;;5017408;28;20490;-72
2022/11/06 06:45:07;;;;;;;10.93;4.97;;;5.80;99.90;;;;;;5019967;28;20018;-72
2022/11/06 06:47:32;;;;;;;7.80;4.93;;;5.80;99.90;;;;;;5016326;28;20364;-72
2022/11/06 06:49:58;;;;;;;10.13;5.37;;;5.70;99.90;;;;;;5016624;28;20117;-72
2022/11/06 06:52:23;;;;;;;9.43;4.90;;;5.60;99.90;;;;;;5015526;28;20026;-73
2022/11/06 06:54:49;;;;;;;9.83;4.63;;;5.60;99.90;;;;;;5015733;28;20029;-72
2022/11/06 06:57:14;;;;;;;7.67;4.77;;;5.50;99.90;;;;;;5016409;28;20029;-73
2022/11/06 06:59:40;;;;;;;9.37;4.80;;;5.40;99.90;;;;;;5015886;28;20382;-72
2022/11/06 07:02:05;;;;;;;8.77;4.37;;;5.30;99.90;;;;;;5014918;28;20029;-72
2022/11/06 07:04:31;;;;;;;7.43;4.30;;;5.30;99.90;;;;;;5014989;28;20050;-72
2022/11/06 07:06:56;;;;;;;12.60;4.23;;;5.40;99.90;;;;;;5016193;28;20132;-73
2022/11/06 07:09:23;;;;;;;5.50;3.70;;;5.30;99.90;;;;;;5016173;28;20034;-72
2022/11/06 07:11:48;;;;;;;7.80;3.83;;;5.20;99.90;;;;;;5014736;28;20540;-72
2022/11/06 07:14:14;;;;;;;7.10;4.00;;;5.20;99.90;;;;;;5022544;28;20046;-72
2022/11/06 07:16:39;;;;;;;5.50;3.50;;;5.20;99.90;;;;;;5036035;28;20029;-73
2022/11/06 07:19:05;;;;;;;7.73;3.70;;;5.20;99.90;;;;;;5018139;28;20535;-72
2022/11/06 07:21:30;;;;;;;6.37;3.60;;;5.20;99.90;;;;;;5011946;28;20077;-72
2022/11/06 07:23:56;;;;;;;8.13;3.17;;;5.20;99.90;;;;;;5016114;28;20065;-72
2022/11/06 07:26:21;;;;;;;5.30;3.37;;;5.30;99.90;;;;;;5014506;28;20050;-72
2022/11/06 07:28:47;;;;;;;4.43;3.13;;;5.40;99.90;;;;;;5015920;28;20038;-73
2022/11/06 07:31:13;;;;;;;7.40;3.57;;;5.50;99.90;;;;;;5014761;28;20516;-72
2022/11/06 07:33:39;;;;;;;7.32;3.63;;;5.50;99.90;;;;;;5016062;28;20129;-71
2022/11/06 07:36:10;;;;;;;5.60;3.47;;;5.60;99.90;;;;;;5014357;28;20061;-72
2022/11/06 07:38:38;;;;;;;4.90;3.38;;;5.60;99.90;;;;;;5015444;28;20018;-70
2022/11/06 07:41:05;;;;;;;7.53;3.17;;;5.70;99.90;;;;;;5014314;28;20498;-73
2022/11/06 07:43:31;;;;;;;4.13;3.00;;;5.80;99.90;;;;;;5008455;28;20022;-71
2022/11/06 07:45:59;;;;;;;3.72;3.05;;;5.80;99.90;;;;;;5008733;28;20022;-71
2022/11/06 07:48:25;;;;;;;6.30;3.22;;;5.90;99.90;;;;;;5015393;28;20105;-71
2022/11/06 07:50:50;;;;;;;7.27;3.40;;;5.90;99.90;;;;;;5014561;28;20076;-72
2022/11/06 07:53:16;;;;;;;5.27;3.03;;;6.00;99.90;;;;;;5015100;28;20033;-71
2022/11/06 07:56:02;;;;;;;6.87;3.00;;;6.00;99.90;;;;;;5015088;28;20425;-71
2022/11/06 07:58:27;;;;;;;5.15;3.53;;;6.10;99.90;;;;;;5007444;28;20041;-72
2022/11/06 08:00:55;;;;;;;6.97;3.90;;;6.20;99.90;;;;;;5013159;28;20076;-71
2022/11/06 08:03:21;;;;;;;4.78;3.40;;;6.30;99.90;;;;;;5003592;28;20483;-72
2022/11/06 08:05:47;;;;;;;7.50;3.88;;;6.30;99.90;;;;;;5010589;28;20038;-71
2022/11/06 08:08:13;;;;;;;9.98;5.03;;;6.30;99.90;;;;;;4994898;28;20022;-71
2022/11/06 08:10:42;;;;;;;7.23;4.67;;;6.30;99.90;;;;;;5010300;28;20026;-72
2022/11/06 08:13:14;;;;;;;6.90;4.28;;;6.30;99.90;;;;;;5015328;28;20034;-72
2022/11/06 08:15:41;;;;;;;5.85;3.90;;;6.30;99.90;;;;;;5014784;28;20493;-72
2022/11/06 08:18:08;;;;;;;6.53;3.78;;;6.30;99.90;;;;;;5014796;28;20038;-72
2022/11/06 08:20:35;;;;;;;4.82;3.35;;;6.30;99.90;;;;;;5002019;28;20034;-71
2022/11/06 08:23:03;;;;;;;10.35;4.45;;;6.40;99.90;;;;;;5008916;28;20107;-71
2022/11/06 08:25:29;;;;;;;6.47;3.97;;;6.30;99.90;;;;;;5007646;28;20022;-71
2022/11/06 08:28:00;;;;;;;5.30;3.55;;;6.30;99.90;;;;;;5015816;28;20049;-71
2022/11/06 08:30:27;;;;;;;7.35;4.65;;;6.30;99.90;;;;;;5013297;28;20117;-71
2022/11/06 08:32:54;;;;;;;7.75;5.18;;;6.40;99.90;;;;;;5014923;28;20093;-70
2022/11/06 08:35:20;;;;;;;;;;;6.50;99.90;;;;;;5014234;28;20063;-70
2022/11/06 08:37:46;;;;;;;10.00;5.68;;;6.60;99.90;;;;;;5008110;28;19910;-69
2022/11/06 08:40:12;;;;;;;;;;;6.60;99.90;;;;;;4995393;28;20023;-69
2022/11/06 08:42:38;;;;;;;14.15;6.65;;;6.70;99.90;;;;;;5009552;28;19913;-69
2022/11/06 08:45:04;;;;;;;16.67;8.10;;;6.80;99.90;;;;;;5007289;28;20537;-68
2022/11/06 08:47:30;;;;;;;;;;;7.00;99.90;;;;;;5013629;28;20044;-69
2022/11/06 08:49:55;;;;;;;11.80;6.10;;;7.00;99.90;;;;;;5014072;28;20003;-68
2022/11/06 08:52:21;;;;;;;15.07;6.73;;;7.20;99.90;;;;;;5013581;28;20033;-69
2022/11/06 08:54:47;;;;;;;10.30;6.33;;;7.40;99.90;;;;;;5012187;28;20026;-69
2022/11/06 08:57:12;;;;;;;10.70;6.40;;;7.50;99.90;;;;;;5012790;28;20030;-68
2022/11/06 08:59:38;;;;;;;9.73;6.77;;;7.50;99.90;;;;;;5013854;28;20045;-69
2022/11/06 09:02:03;;;;;;;7.43;5.07;;;7.50;99.90;;;;;;5013431;28;20026;-69
2022/11/06 09:04:29;;;;;;;7.93;5.33;;;7.70;99.90;;;;;;5012506;28;20032;-69
2022/11/06 09:06:56;;;;;;;8.87;4.63;;;7.70;99.90;;;;;;5013844;28;20100;-70
2022/11/06 09:09:22;;;;;;;7.63;4.43;;;7.80;99.90;;;;;;5014166;28;20076;-71
2022/11/06 09:11:48;;;;;;;5.00;3.73;;;7.90;99.90;;;;;;5014134;28;20438;-71
2022/11/06 09:14:13;;;;;;;6.60;3.47;;;8.10;99.90;;;;;;5014272;28;20088;-72
2022/11/06 09:16:39;;;;;;;6.23;3.73;;;8.20;99.90;;;;;;5014452;28;20398;-71
2022/11/06 09:19:04;;;;;;;6.63;3.40;;;8.30;99.90;;;;;;5013052;28;20433;-70
2022/11/06 09:21:30;;;;;;;4.73;3.37;;;8.50;99.90;;;;;;5014046;28;20407;-70
2022/11/06 09:23:55;;;;;;;5.23;2.87;;;8.60;99.90;;;;;;5012566;28;20053;-69
2022/11/06 09:26:21;;;;;;;5.30;3.33;;;8.70;99.90;;;;;;5012514;28;20095;-70
2022/11/06 09:28:46;;;;;;;4.77;2.93;;;9.90;99.90;;;;;;5013533;28;20490;-72
2022/11/06 09:31:12;;;;;;;7.50;3.97;;;11.20;99.90;;;;;;5012451;28;20060;-72
2022/11/06 09:33:38;;;;;;;4.57;2.85;;;11.50;99.90;;;;;;5013699;28;20064;-73
2022/11/06 09:36:05;;;;;;;4.47;3.03;;;11.20;99.90;;;;;;5013789;28;20060;-72
2022/11/06 09:38:31;;;;;;;6.30;2.90;;;11.40;99.90;;;;;;5013134;28;20474;-69
2022/11/06 09:40:59;;;;;;;5.10;3.33;;;11.20;99.90;;;;;;5014680;28;20022;-72
2022/11/06 09:43:49;;;;;;;5.03;3.33;;;11.00;99.90;;;;;;5012945;28;20037;-71
2022/11/06 09:46:30;;;;;;;6.15;3.28;;;10.80;99.90;;;;;;5012423;28;20022;-71
2022/11/06 09:49:19;;;;;;;4.30;2.90;;;11.20;99.90;;;;;;5012539;28;20057;-72
2022/11/06 09:51:57;;;;;;;4.95;3.08;;;11.40;99.90;;;;;;5012386;28;20497;-71
2022/11/06 09:54:27;;;;;;;6.60;3.45;;;11.10;99.90;;;;;;5010978;28;20057;-67
2022/11/06 09:56:59;;;;;;;5.50;3.42;;;10.30;99.90;;;;;;5005494;28;20441;-72
2022/11/06 09:59:25;;;;;;;6.13;3.13;;;10.50;99.90;;;;;;5013162;28;20052;-71
2022/11/06 10:01:55;;;;;;;4.93;3.00;;;10.70;99.90;;;;;;5013496;28;20489;-71
2022/11/06 10:04:36;;;;;;;5.47;3.17;;;10.70;99.90;;;;;;5012357;28;20034;-71
2022/11/06 10:07:02;;;;;;;4.50;2.88;;;10.60;99.90;;;;;;5013355;28;20026;-72
2022/11/06 10:09:28;;;;;;;4.37;2.90;;;10.40;99.90;;;;;;5012172;28;20022;-69
2022/11/06 10:12:16;;;;;;;6.22;3.45;;;11.00;99.90;;;;;;5011965;28;20026;-71
2022/11/06 10:14:51;;;;;;;5.63;3.33;;;10.90;99.90;;;;;;5002732;28;20049;-69
2022/11/06 10:17:48;;;;;;;4.40;3.40;;;10.90;99.90;;;;;;5010229;28;20049;-69
2022/11/06 10:20:22;;;;;;;5.95;3.28;;;11.00;99.90;;;;;;4994105;28;20022;-70
2022/11/06 10:23:04;;;;;;;4.43;2.83;;;11.10;99.90;;;;;;5006698;28;20521;-69
2022/11/06 10:25:49;;;;;;;3.55;2.90;;;11.10;99.90;;;;;;4994351;28;20080;-69
2022/11/06 10:28:37;;;;;;;8.30;3.15;;;11.30;99.90;;;;;;4997948;28;20533;-70
2022/11/06 10:31:10;;;;;;;5.28;3.33;;;11.10;99.90;;;;;;5012953;28;20026;-71
2022/11/06 10:34:16;;;;;;;4.95;2.78;;;11.20;99.90;;;;;;5007705;28;20387;-71
2022/11/06 10:36:50;;;;;;;4.00;2.40;;;11.20;99.90;;;;;;5001608;28;20111;-70
2022/11/06 10:39:27;;;;;;;6.65;2.53;;;11.30;99.90;;;;;;4994796;28;20045;-69
2022/11/06 10:42:09;;;;;;;4.13;2.78;;;11.60;99.90;;;;;;4998409;28;20023;-71
2022/11/06 10:44:43;;;;;;;2.92;2.30;;;11.70;99.90;;;;;;5016036;28;20044;-69
2022/11/06 10:47:14;;;;;;;5.43;2.90;;;11.70;99.90;;;;;;5035170;28;20029;-68
2022/11/06 10:50:01;;;;;;;4.93;2.30;;;11.80;99.90;;;;;;5036413;28;20036;-68
2022/11/06 10:52:44;;;;;;;5.85;2.63;;;11.90;99.90;;;;;;5035537;28;20025;-68
2022/11/06 10:55:47;;;;;;;3.10;2.20;;;11.80;99.90;;;;;;5037212;28;20051;-68
2022/11/06 10:58:18;;;;;;;3.88;2.28;;;11.60;99.90;;;;;;5036292;28;20040;-68
2022/11/06 11:00:44;;;;;;;3.55;2.28;;;11.60;99.90;;;;;;5029817;28;20165;-71
2022/11/06 11:03:40;;;;;;;3.78;2.28;;;11.40;99.90;;;;;;5014429;28;20061;-69
2022/11/06 11:06:06;;;;;;;3.38;2.47;;;11.50;99.90;;;;;;4996782;28;20034;-69
2022/11/06 11:08:33;;;;;;;4.65;2.20;;;11.50;99.90;;;;;;4996828;28;20037;-71
2022/11/06 11:11:05;;;;;;;4.32;2.40;;;11.50;99.90;;;;;;4995398;28;20042;-72
2022/11/06 11:13:31;;;;;;;3.75;2.47;;;11.30;99.90;;;;;;4997921;28;20034;-73
2022/11/06 11:15:57;;;;;;;5.28;2.63;;;11.20;99.90;;;;;;5016964;28;20045;-72
2022/11/06 11:18:31;;;;;;;5.30;2.72;;;11.40;99.90;;;;;;5017634;28;20026;-72
2022/11/06 11:21:18;;;;;;;4.63;2.70;;;11.40;99.90;;;;;;5017820;28;20022;-73
2022/11/06 11:23:45;;;;;;;4.28;2.72;;;11.40;99.90;;;;;;5015929;28;20029;-72
2022/11/06 11:26:32;;;;;;;5.53;2.72;;;11.30;99.90;;;;;;5013392;23;20051;-72
2022/11/06 11:29:22;;;;;;;6.90;2.58;;;11.30;99.90;;;;;;4996663;28;20066;-71
2022/11/06 11:31:52;;;;;;;4.05;2.63;;;11.20;99.90;;;;;;5000895;28;20368;-72
2022/11/06 11:34:24;;;;;;;5.50;3.28;;;11.20;99.90;;;;;;4988619;28;20076;-72
2022/11/06 11:37:04;;;;;;;5.95;2.92;;;11.20;99.90;;;;;;4975852;28;20514;-67
2022/11/06 11:39:36;;;;;;;5.40;2.63;;;11.30;99.90;;;;;;4983019;28;20026;-74
2022/11/06 11:42:25;;;;;;;4.70;2.95;;;11.40;99.90;;;;;;4979067;28;20030;-68
2022/11/06 11:45:09;;;;;;;7.10;4.03;;;11.50;99.90;;;;;;4971067;28;20028;-66
2022/11/06 11:47:41;;;;;;;8.88;5.28;;;11.20;99.90;;;;;;4970751;28;20047;-65
2022/11/06 11:50:24;;;;;;;5.45;2.92;;;11.40;99.90;;;;;;4968100;28;20560;-65
2022/11/06 11:53:01;;;;;;;7.30;3.35;;;11.30;99.90;;;;;;4974304;28;20053;-72
2022/11/06 11:55:28;;;;;;;5.82;3.30;;;11.20;99.90;;;;;;4976856;28;20063;-75
2022/11/06 11:57:58;;;;;;;5.22;2.80;;;11.40;99.90;;;;;;4978725;28;20042;-75
2022/11/06 12:00:24;;;;;;;5.57;3.53;;;11.60;99.90;;;;;;4981075;28;20479;-72
2022/11/06 12:02:54;;;;;;;4.90;3.25;;;11.80;99.90;;;;;;4980509;28;20027;-73
2022/11/06 12:05:36;;;;;;;4.70;3.05;;;11.90;99.90;;;;;;4976351;28;20067;-70
2022/11/06 12:08:02;;;;;;;5.13;2.92;;;11.90;99.90;;;;;;4973855;28;20030;-68
2022/11/06 12:10:31;;;;;;;4.97;3.03;;;12.10;99.90;;;;;;4957516;28;20063;-70
2022/11/06 12:12:59;;;;;;;5.90;3.25;;;12.20;99.90;;;;;;4956181;28;20039;-68
2022/11/06 12:15:50;;;;;;;6.15;2.97;;;12.10;99.90;;;;;;4961663;28;20072;-78
2022/11/06 12:18:24;;;;;;;4.57;3.20;;;12.10;99.90;;;;;;4975777;28;20027;-71
2022/11/06 12:21:04;;;;;;;5.72;3.22;;;12.20;99.90;;;;;;4976981;28;20015;-69
2022/11/06 12:23:58;;;;;;;5.70;3.22;;;12.20;99.90;;;;;;4971297;28;20023;-69
2022/11/06 12:26:50;;;;;;;4.82;3.05;;;12.30;99.90;;;;;;4965810;28;20369;-69
2022/11/06 12:29:20;;;;;;;5.47;3.33;;;12.40;99.90;;;;;;4976367;28;20142;-72
2022/11/06 12:32:08;;;;;;;9.77;3.30;;;12.10;99.90;;;;;;4975757;28;20022;-71
2022/11/06 12:34:46;;;;;;;8.05;4.88;;;12.10;99.90;;;;;;4973184;28;20054;-74
2022/11/06 12:37:33;;;;;;;5.55;3.38;;;12.30;99.90;;;;;;4988138;28;20035;-68
2022/11/06 12:40:29;;;;;;;5.50;3.92;;;12.40;99.90;;;;;;4975576;28;20026;-76
2022/11/06 12:43:16;;;;;;;6.05;4.10;;;12.30;99.90;;;;;;4968354;28;20038;-71
2022/11/06 12:46:11;;;;;;;5.63;3.22;;;12.30;99.90;;;;;;4975526;28;20122;-73
2022/11/06 12:48:48;;;;;;;6.88;3.78;;;12.10;99.90;;;;;;4986401;28;20030;-68
2022/11/06 12:51:40;;;;;;;5.13;3.25;;;12.10;99.90;;;;;;4973860;28;20031;-68
2022/11/06 12:54:05;;;;;;;6.00;3.15;;;12.10;99.90;;;;;;4975196;28;20396;-68
2022/11/06 12:56:47;;;;;;;5.97;3.10;;;12.10;99.90;;;;;;4968740;28;20030;-68
2022/11/06 12:59:36;;;;;;;5.57;3.17;;;12.00;99.90;;;;;;4974051;28;20436;-72
2022/11/06 13:02:22;;;;;;;6.43;3.33;;;11.90;99.90;;;;;;4975051;28;20499;-73
2022/11/06 13:05:37;;;;;;;6.10;3.47;;;11.50;99.90;;;;;;4970528;28;20469;-74
2022/11/06 13:08:21;;;;;;;6.03;2.88;;;11.40;99.90;;;;;;4896537;29;20037;-70
2022/11/06 13:11:00;;;;;;;5.43;3.60;;;11.50;99.90;;;;;;4896265;29;20461;-70
2022/11/06 13:13:33;;;;;;;5.95;4.13;;;11.60;99.90;;;;;;4896841;29;20028;-70
2022/11/06 13:15:58;;;;;;;6.75;4.03;;;11.70;99.90;;;;;;4896402;29;20063;-69
2022/11/06 13:18:33;;;;;;;9.70;4.57;;;11.90;99.90;;;;;;4896699;29;20087;-70
2022/11/06 13:21:20;;;;;;;6.05;3.80;;;11.90;99.90;;;;;;4896824;29;20035;-71
2022/11/06 13:23:50;;;;;;;5.63;3.73;;;12.00;99.90;;;;;;4896960;29;20386;-70
2022/11/06 13:26:31;;;;;;;5.13;3.20;;;12.00;99.90;;;;;;4895972;29;20273;-70
2022/11/06 13:29:01;;;;;;;8.05;4.85;;;11.90;99.90;;;;;;4896577;29;20500;-71
2022/11/06 13:32:00;;;;;;;6.45;4.32;;;11.90;99.90;;;;;;4897225;29;20410;-72
2022/11/06 13:34:37;;;;;;;4.13;2.92;;;11.80;99.90;;;;;;4878643;29;20037;-72
2022/11/06 13:37:17;;;;;;;5.68;3.60;;;11.70;99.90;;;;;;4863768;29;20489;-76
2022/11/06 13:40:03;;;;;;;8.70;3.85;;;11.70;99.90;;;;;;4878244;29;20032;-72
2022/11/06 13:42:35;;;;;;;47.25;22.98;;;11.70;99.90;;;;;;4878210;29;20029;-74
2022/11/06 13:45:01;;;;;;;18.48;9.88;;;11.60;99.90;;;;;;4895214;29;20035;-74
2022/11/06 13:48:08;;;;;;;8.50;5.38;;;11.40;99.90;;;;;;4915381;29;20032;-74
2022/11/06 13:50:43;;;;;;;8.88;3.97;;;11.40;99.90;;;;;;4901232;29;20032;-74
2022/11/06 13:53:21;;;;;;;5.93;3.85;;;11.60;99.90;;;;;;4900638;29;20154;-73
2022/11/06 13:56:10;;;;;;;8.50;4.28;;;11.70;99.90;;;;;;4903272;29;20396;-70
2022/11/06 13:59:05;;;;;;;9.35;4.55;;;11.50;99.90;;;;;;4934592;29;20043;-74
2022/11/06 14:01:43;;;;;;;8.02;4.78;;;11.40;99.90;;;;;;4918134;29;20028;-71
2022/11/06 14:04:48;;;;;;;5.82;4.45;;;11.40;99.90;;;;;;4934320;29;20119;-73
2022/11/06 14:07:16;;;;;;;8.88;7.22;;;11.30;99.90;;;;;;4918220;29;20040;-73
2022/11/06 14:09:45;;;;;;;8.65;6.25;;;11.20;99.90;;;;;;4921322;29;20043;-70
2022/11/06 14:12:20;;;;;;;7.70;5.22;;;11.10;99.90;;;;;;4954643;28;20027;-71
2022/11/06 14:14:47;;;;;;;6.65;4.82;;;11.20;99.90;;;;;;4955807;28;20027;-68
2022/11/06 14:17:15;;;;;;;;;;;11.30;99.90;;;;;;4959329;28;20043;-74
2022/11/06 14:19:59;;;;;;;6.00;3.97;;;11.40;99.90;;;;;;4958804;28;19917;-71
2022/11/06 14:22:27;;;;;;;6.97;4.40;;;11.40;99.90;;;;;;4957437;29;20027;-72
2022/11/06 14:24:53;;;;;;;11.05;4.35;;;11.40;99.90;;;;;;4956952;28;20039;-72
2022/11/06 14:27:22;;;;;;;7.15;4.22;;;11.50;99.90;;;;;;4956972;29;20097;-73
2022/11/06 14:30:00;;;;;;;7.47;4.22;;;11.50;99.90;;;;;;4958473;29;20030;-68
2022/11/06 14:32:47;;;;;;;4.65;3.70;;;11.50;99.90;;;;;;4958188;28;20027;-72
2022/11/06 14:35:28;;;;;;;6.45;4.07;;;11.50;99.90;;;;;;4957261;29;20031;-68
2022/11/06 14:38:16;;;;;;;7.88;4.15;;;11.50;99.90;;;;;;4957030;29;20058;-67
2022/11/06 14:40:42;;;;;;;6.50;4.68;;;11.40;99.90;;;;;;4958712;29;20405;-71
2022/11/06 14:43:17;;;;;;;6.72;4.38;;;11.40;99.90;;;;;;4957098;29;20060;-71
2022/11/06 14:46:03;;;;;;;7.22;4.35;;;11.40;99.90;;;;;;4962588;28;20023;-73
2022/11/06 14:48:32;;;;;;;6.18;5.28;;;11.20;99.90;;;;;;4993667;28;20094;-71
2022/11/06 14:51:00;;;;;;;7.97;4.68;;;11.00;99.90;;;;;;4978350;28;20031;-71
2022/11/06 14:53:30;;;;;;;6.95;4.30;;;10.90;99.90;;;;;;4960652;28;20027;-72
2022/11/06 14:56:08;;;;;;;7.80;4.85;;;11.00;99.90;;;;;;4977415;28;20050;-75
2022/11/06 14:58:40;;;;;;;7.20;4.85;;;11.00;99.90;;;;;;4957660;28;20480;-74
2022/11/06 15:01:08;;;;;;;10.30;5.70;;;10.90;99.90;;;;;;4957940;29;20396;-74
2022/11/06 15:03:52;;;;;;;11.20;6.30;;;10.80;99.90;;;;;;4959076;29;20023;-72
2022/11/06 15:06:18;;;;;;;9.80;6.13;;;10.70;99.90;;;;;;5000319;28;20157;-73
2022/11/06 15:08:47;;;;;;;10.43;6.97;;;10.70;99.90;;;;;;5001286;28;20066;-68
2022/11/06 15:11:42;;;;;;;10.13;7.50;;;10.50;99.90;;;;;;4986872;28;20097;-74
2022/11/06 15:14:08;;;;;;;12.25;7.90;;;10.50;99.90;;;;;;4964570;28;20042;-70
2022/11/06 15:16:39;;;;;;;11.27;9.00;;;10.50;99.90;;;;;;4974374;28;20038;-69
2022/11/06 15:19:17;;;;;;;13.18;9.15;;;10.30;99.90;;;;;;4976056;28;20174;-69
2022/11/06 15:21:47;;;;;;;13.35;9.93;;;10.20;99.90;;;;;;4976604;28;20483;-72
2022/11/06 15:24:27;;;;;;;14.63;9.82;;;10.20;99.90;;;;;;4976492;28;20038;-69
2022/11/06 15:27:07;;;;;;;16.10;11.15;;;10.10;99.90;;;;;;4976582;28;20030;-72
2022/11/06 15:29:38;;;;;;;16.17;10.38;;;10.10;99.90;;;;;;4978777;28;20076;-72
2022/11/06 15:32:17;;;;;;;15.60;10.25;;;10.20;99.90;;;;;;4979355;28;20030;-72
2022/11/06 15:34:56;;;;;;;15.50;10.43;;;10.20;99.90;;;;;;4976398;28;20030;-73
2022/11/06 15:37:37;;;;;;;14.20;9.93;;;10.20;99.90;;;;;;4977858;28;20196;-71
2022/11/06 15:40:04;;;;;;;14.75;10.38;;;10.00;99.90;;;;;;4976835;28;20058;-71
2022/11/06 15:42:36;;;;;;;15.50;10.38;;;10.10;99.90;;;;;;4978459;28;20027;-71
2022/11/06 15:45:19;;;;;;;12.73;9.63;;;10.00;99.90;;;;;;4979112;28;20158;-72
2022/11/06 15:47:57;;;;;;;15.77;10.50;;;9.90;99.90;;;;;;4978431;28;20387;-74
2022/11/06 15:50:31;;;;;;;13.82;9.27;;;9.90;99.90;;;;;;4975557;28;20476;-75
2022/11/06 15:53:12;;;;;;;14.38;9.98;;;9.80;99.90;;;;;;4975919;28;20026;-72
2022/11/06 15:55:52;;;;;;;14.23;10.15;;;9.70;99.90;;;;;;4978765;28;20031;-73
2022/11/06 15:58:17;;;;;;;14.93;10.20;;;9.70;99.90;;;;;;4975453;28;20027;-73
2022/11/06 16:00:44;;;;;;;16.60;10.23;;;9.80;99.90;;;;;;4977839;28;20098;-74
2022/11/06 16:03:19;;;;;;;14.45;9.80;;;9.70;99.90;;;;;;4975538;28;20033;-74
2022/11/06 16:05:45;;;;;;;14.88;10.05;;;9.60;99.90;;;;;;4975154;28;20433;-72
2022/11/06 16:08:16;;;;;;;14.18;9.77;;;9.70;99.90;;;;;;4991541;28;20427;-72
2022/11/06 16:10:44;;;;;;;16.38;9.90;;;9.80;99.90;;;;;;4991305;28;20138;-75
2022/11/06 16:13:15;;;;;;;17.10;10.55;;;9.70;99.90;;;;;;4976704;28;20030;-74
2022/11/06 16:15:43;;;;;;;19.10;9.32;;;9.80;99.90;;;;;;4976557;28;20543;-68
2022/11/06 16:18:17;;;;;;;15.88;9.68;;;9.80;99.90;;;;;;4974625;28;20030;-67
2022/11/06 16:20:46;;;;;;;17.23;11.70;;;9.80;99.90;;;;;;4974534;28;20034;-67
2022/11/06 16:23:19;;;;;;;20.98;13.32;;;9.80;99.90;;;;;;4975670;28;20058;-68
2022/11/06 16:25:45;;;;;;;16.70;10.68;;;9.70;99.90;;;;;;4990429;28;20031;-68
2022/11/06 16:28:19;;;;;;;13.55;9.95;;;9.70;99.90;;;;;;4975418;28;20026;-66
2022/11/06 16:30:47;;;;;;;12.93;9.43;;;9.80;99.90;;;;;;4974439;28;20039;-69
2022/11/06 16:33:21;;;;;;;16.83;10.68;;;9.70;99.90;;;;;;4975655;28;20057;-68
2022/11/06 16:35:49;;;;;;;16.05;9.98;;;9.70;99.90;;;;;;4974194;28;20022;-68
2022/11/06 16:38:15;;;;;;;14.70;9.60;;;9.70;99.90;;;;;;4990429;28;20123;-68
2022/11/06 16:40:48;;;;;;;15.30;9.80;;;9.80;99.90;;;;;;4974111;28;20046;-68
2022/11/06 16:43:16;;;;;;;18.80;10.73;;;9.80;99.90;;;;;;4973901;28;20027;-67
2022/11/06 16:45:54;;;;;;;16.55;10.00;;;9.80;99.90;;;;;;4975456;28;20026;-68
2022/11/06 16:48:31;;;;;;;13.95;8.73;;;9.90;99.90;;;;;;4975531;28;20027;-68
2022/11/06 16:50:59;;;;;;;13.05;8.95;;;10.00;99.90;;;;;;4974279;28;20069;-68
2022/11/06 16:53:28;;;;;;;13.20;8.98;;;10.00;99.90;;;;;;4974111;28;20439;-68
2022/11/06 16:55:58;;;;;;;19.10;9.68;;;10.00;99.90;;;;;;4969968;28;20054;-69
2022/11/06 16:58:25;;;;;;;17.08;9.15;;;10.00;99.90;;;;;;4954456;29;20031;-69
2022/11/06 17:01:05;;;;;;;14.70;9.20;;;9.90;99.90;;;;;;4957127;29;20038;-72
2022/11/06 17:03:47;;;;;;;15.20;9.00;;;9.80;99.90;;;;;;4976582;28;20023;-72
2022/11/06 17:06:25;;;;;;;12.80;8.50;;;9.80;99.90;;;;;;4983129;28;20067;-73
2022/11/06 17:09:05;;;;;;;14.02;10.02;;;9.80;99.90;;;;;;4986291;28;20058;-72
2022/11/06 17:11:31;;;;;;;19.42;11.95;;;9.80;99.90;;;;;;4977816;28;20554;-73
2022/11/06 17:13:57;;;;;;;26.73;14.07;;;9.80;99.90;;;;;;4977476;28;20055;-72
2022/11/06 17:16:25;;;;;;;19.83;11.13;;;9.80;99.90;;;;;;4974364;28;20471;-67
2022/11/06 17:18:51;;;;;;;29.80;16.10;;;9.70;99.90;;;;;;4956208;29;20526;-67
2022/11/06 17:21:23;;;;;;;119.90;53.55;;;9.70;99.90;;;;;;4955880;29;20028;-69
2022/11/06 17:23:51;;;;;;;20.52;11.60;;;9.80;99.90;;;;;;4954964;29;20023;-68
2022/11/06 17:26:27;;;;;;;23.77;13.30;;;9.70;99.90;;;;;;5007327;23;20050;-70
2022/11/06 17:28:56;;;;;;;102.93;43.67;;;9.80;99.90;;;;;;4998932;28;20049;-71
2022/11/06 17:31:22;;;;;;;77.40;30.73;;;9.70;99.90;;;;;;4983344;28;20468;-72
2022/11/06 17:33:48;;;;;;;55.85;24.63;;;9.60;99.90;;;;;;4992006;28;20102;-72
2022/11/06 17:36:25;;;;;;;20.42;11.35;;;9.70;99.90;;;;;;4995230;28;20408;-71
2022/11/06 17:38:55;;;;;;;14.45;9.63;;;9.60;99.90;;;;;;4993925;28;20465;-73
2022/11/06 17:41:31;;;;;;;15.30;10.00;;;9.60;99.90;;;;;;4994774;28;20049;-71
2022/11/06 17:44:08;;;;;;;12.93;8.90;;;9.50;99.90;;;;;;4993493;28;20033;-70
2022/11/06 17:46:39;;;;;;;20.38;14.80;;;9.50;99.90;;;;;;4994182;28;20019;-69
2022/11/06 17:49:04;;;;;;;22.45;13.25;;;9.50;99.90;;;;;;4995857;28;20571;-71
2022/11/06 17:51:48;;;;;;;15.45;11.82;;;9.60;99.90;;;;;;4999146;28;20111;-71
2022/11/06 17:54:15;;;;;;;12.90;8.88;;;9.60;99.90;;;;;;4997246;28;20039;-72
2022/11/06 17:56:41;;;;;;;12.48;9.25;;;9.50;99.90;;;;;;5012589;28;20022;-71
2022/11/06 17:59:12;;;;;;;14.38;12.60;;;9.50;99.90;;;;;;5016580;28;20030;-70
2022/11/06 18:01:38;;;;;;;12.85;8.82;;;9.40;99.90;;;;;;5016425;28;20509;-69
2022/11/06 18:04:04;;;;;;;13.80;8.57;;;9.50;99.90;;;;;;5017967;28;20025;-68
2022/11/06 18:06:29;;;;;;;15.70;9.98;;;9.60;99.90;;;;;;5018272;28;20033;-68
2022/11/06 18:08:56;;;;;;;13.23;9.13;;;9.70;99.90;;;;;;5018323;28;20030;-71
2022/11/06 18:11:21;;;;;;;;;;;9.60;99.90;;;;;;5019309;28;20026;-71
2022/11/06 18:13:47;;;;;;;12.85;8.27;;;9.70;99.90;;;;;;5016911;28;19914;-69
2022/11/06 18:16:21;;;;;;;12.80;8.23;;;9.50;99.90;;;;;;4987573;28;20407;-69
2022/11/06 18:18:47;;;;;;;12.02;8.85;;;9.40;99.90;;;;;;4977257;28;20037;-69